VIV2104 MMMX-MMMY
Flight info
| Callsign | VIV2104 |
|---|---|
| Flight time | 1h 4m |
| Altitude | 36000 |
| Route | AXIRI2A AXIRI UT138 TALPU DCT RETOS RETOS1B |
| Aircraft | A320/M-SDE3FGHIRWY/LB1 |
Departure
| Time | 2026-04-20 03:09 |
|---|---|
| Airport | Mexico City Benito Juárez International Airport (MMMX) |
Arrival
| Time | 2026-04-20 04:14 |
|---|---|
| Airport | Monterrey International Airport (MMMY) |
| Time | Latitude | Longitude | Altitude | Speed | Heading |
|---|---|---|---|---|---|
| 2026-04-20 02:53 | 19.43299 | -99.08521 | 7302 ft | 0 kts | 326° |
| 2026-04-20 02:59 | 19.43290 | -99.08514 | 7301 ft | 3 kts | 326° |
| 2026-04-20 02:59 | 19.43275 | -99.08504 | 7301 ft | 3 kts | 326° |
| 2026-04-20 02:59 | 19.43261 | -99.08493 | 7301 ft | 3 kts | 326° |
| 2026-04-20 02:59 | 19.43246 | -99.08483 | 7301 ft | 3 kts | 326° |
| 2026-04-20 03:00 | 19.43231 | -99.08472 | 7301 ft | 3 kts | 326° |
| 2026-04-20 03:00 | 19.43219 | -99.08459 | 7301 ft | 2 kts | 263° |
| 2026-04-20 03:00 | 19.43224 | -99.08445 | 7301 ft | 0 kts | 204° |
| 2026-04-20 03:01 | 19.43225 | -99.08445 | 7301 ft | 0 kts | 199° |
| 2026-04-20 03:02 | 19.43224 | -99.08445 | 7301 ft | 0 kts | 205° |
| 2026-04-20 03:02 | 19.43220 | -99.08455 | 7301 ft | 4 kts | 247° |
| 2026-04-20 03:03 | 19.43205 | -99.08488 | 7308 ft | 6 kts | 240° |
| 2026-04-20 03:03 | 19.43184 | -99.08526 | 7301 ft | 6 kts | 240° |
| 2026-04-20 03:03 | 19.43161 | -99.08568 | 7301 ft | 7 kts | 239° |
| 2026-04-20 03:03 | 19.43135 | -99.08616 | 7301 ft | 8 kts | 239° |
| 2026-04-20 03:04 | 19.43105 | -99.08668 | 7301 ft | 9 kts | 239° |
| 2026-04-20 03:04 | 19.43072 | -99.08728 | 7300 ft | 10 kts | 239° |
| 2026-04-20 03:04 | 19.43035 | -99.08792 | 7300 ft | 11 kts | 238° |
| 2026-04-20 03:04 | 19.42996 | -99.08860 | 7301 ft | 11 kts | 238° |
| 2026-04-20 03:05 | 19.42957 | -99.08929 | 7301 ft | 11 kts | 240° |
| 2026-04-20 03:05 | 19.42914 | -99.09000 | 7301 ft | 12 kts | 231° |
| 2026-04-20 03:05 | 19.42869 | -99.09039 | 7301 ft | 7 kts | 211° |
| 2026-04-20 03:05 | 19.42858 | -99.09045 | 7301 ft | 0 kts | 209° |
| 2026-04-20 03:06 | 19.42855 | -99.09047 | 7301 ft | 1 kts | 208° |
| 2026-04-20 03:06 | 19.42843 | -99.09055 | 7301 ft | 3 kts | 208° |
| 2026-04-20 03:06 | 19.42811 | -99.09073 | 7301 ft | 6 kts | 208° |
| 2026-04-20 03:06 | 19.42775 | -99.09085 | 7301 ft | 5 kts | 171° |
| 2026-04-20 03:07 | 19.42762 | -99.09056 | 7302 ft | 5 kts | 91° |
| 2026-04-20 03:07 | 19.42774 | -99.09020 | 7302 ft | 6 kts | 62° |
| 2026-04-20 03:07 | 19.42784 | -99.09003 | 7302 ft | 0 kts | 60° |
| 2026-04-20 03:08 | 19.42784 | -99.09002 | 7302 ft | 1 kts | 60° |
| 2026-04-20 03:08 | 19.42828 | -99.08921 | 7302 ft | 42 kts | 59° |
| 2026-04-20 03:08 | 19.43119 | -99.08408 | 7300 ft | 117 kts | 59° |
| 2026-04-20 03:09 | 19.43634 | -99.07488 | 7304 ft | 172 kts | 59° |
| 2026-04-20 03:09 | 19.44279 | -99.06322 | 7772 ft | 190 kts | 58° |
| 2026-04-20 03:09 | 19.44971 | -99.05057 | 8538 ft | 207 kts | 60° |
| 2026-04-20 03:09 | 19.45704 | -99.03695 | 9280 ft | 219 kts | 59° |
| 2026-04-20 03:10 | 19.46483 | -99.02219 | 9672 ft | 241 kts | 61° |
| 2026-04-20 03:10 | 19.47340 | -99.00583 | 10084 ft | 266 kts | 60° |
| 2026-04-20 03:10 | 19.48342 | -98.98855 | 10593 ft | 277 kts | 58° |
| 2026-04-20 03:10 | 19.49415 | -98.97115 | 11104 ft | 287 kts | 57° |
| 2026-04-20 03:11 | 19.50555 | -98.95338 | 11634 ft | 297 kts | 57° |
| 2026-04-20 03:11 | 19.51657 | -98.93455 | 12193 ft | 304 kts | 60° |
| 2026-04-20 03:11 | 19.52727 | -98.91502 | 12815 ft | 309 kts | 61° |
| 2026-04-20 03:11 | 19.53945 | -98.89606 | 13453 ft | 314 kts | 51° |
| 2026-04-20 03:12 | 19.55365 | -98.87829 | 14098 ft | 318 kts | 49° |
| 2026-04-20 03:12 | 19.56856 | -98.86079 | 14673 ft | 321 kts | 47° |
| 2026-04-20 03:12 | 19.58382 | -98.84341 | 15261 ft | 324 kts | 47° |
| 2026-04-20 03:12 | 19.59929 | -98.82593 | 15856 ft | 326 kts | 46° |
| 2026-04-20 03:13 | 19.61484 | -98.80832 | 16464 ft | 328 kts | 46° |
| 2026-04-20 03:13 | 19.63040 | -98.79060 | 17101 ft | 328 kts | 46° |
| 2026-04-20 03:13 | 19.64592 | -98.77281 | 17736 ft | 329 kts | 46° |
| 2026-04-20 03:13 | 19.66143 | -98.75494 | 18397 ft | 329 kts | 47° |
| 2026-04-20 03:14 | 19.67696 | -98.73701 | 18991 ft | 328 kts | 46° |
| 2026-04-20 03:14 | 19.69238 | -98.71916 | 19627 ft | 327 kts | 46° |
| 2026-04-20 03:14 | 19.70935 | -98.70396 | 20208 ft | 322 kts | 24° |
| 2026-04-20 03:14 | 19.73075 | -98.69791 | 20746 ft | 319 kts | 4° |
| 2026-04-20 03:15 | 19.75292 | -98.69589 | 21269 ft | 320 kts | 1° |
| 2026-04-20 03:15 | 19.77515 | -98.69448 | 21804 ft | 320 kts | 359° |
| 2026-04-20 03:15 | 19.79744 | -98.69329 | 22346 ft | 320 kts | 1° |
| 2026-04-20 03:15 | 19.81967 | -98.69211 | 22898 ft | 319 kts | 359° |
| 2026-04-20 03:16 | 19.83439 | -98.69130 | 23270 ft | 318 kts | 359° |
| 2026-04-20 03:16 | 19.85641 | -98.68998 | 23829 ft | 317 kts | 0° |
| 2026-04-20 03:16 | 19.87845 | -98.68856 | 24231 ft | 318 kts | 1° |
| 2026-04-20 03:16 | 19.90062 | -98.68710 | 24578 ft | 321 kts | 0° |
| 2026-04-20 03:17 | 19.92300 | -98.68561 | 24927 ft | 323 kts | 0° |
| 2026-04-20 03:17 | 19.94559 | -98.68409 | 25294 ft | 326 kts | 0° |
| 2026-04-20 03:17 | 19.96800 | -98.68521 | 25664 ft | 320 kts | 339° |
| 2026-04-20 03:17 | 19.98740 | -98.69580 | 26030 ft | 313 kts | 321° |
| 2026-04-20 03:18 | 20.00514 | -98.70930 | 26415 ft | 315 kts | 320° |
| 2026-04-20 03:18 | 20.02285 | -98.72308 | 26799 ft | 316 kts | 319° |
| 2026-04-20 03:18 | 20.04056 | -98.73696 | 27188 ft | 317 kts | 319° |
| 2026-04-20 03:18 | 20.05833 | -98.75087 | 27580 ft | 318 kts | 319° |
| 2026-04-20 03:19 | 20.07638 | -98.76493 | 27729 ft | 328 kts | 319° |
| 2026-04-20 03:19 | 20.09514 | -98.77953 | 27785 ft | 340 kts | 319° |
| 2026-04-20 03:19 | 20.11458 | -98.79468 | 27824 ft | 352 kts | 319° |
| 2026-04-20 03:19 | 20.13468 | -98.81031 | 27881 ft | 364 kts | 320° |
| 2026-04-20 03:20 | 20.15555 | -98.82649 | 27933 ft | 376 kts | 320° |
| 2026-04-20 03:20 | 20.17701 | -98.84316 | 27985 ft | 388 kts | 320° |
| 2026-04-20 03:20 | 20.19912 | -98.86044 | 28037 ft | 399 kts | 320° |
| 2026-04-20 03:20 | 20.22170 | -98.87818 | 28088 ft | 410 kts | 320° |
| 2026-04-20 03:21 | 20.24505 | -98.89668 | 28138 ft | 421 kts | 319° |
| 2026-04-20 03:21 | 20.29135 | -98.93691 | 28255 ft | 438 kts | 316° |
| 2026-04-20 03:22 | 20.33829 | -98.98033 | 28345 ft | 455 kts | 315° |
| 2026-04-20 03:22 | 20.38677 | -99.02492 | 28449 ft | 468 kts | 316° |
| 2026-04-20 03:23 | 20.43872 | -99.06784 | 28534 ft | 476 kts | 330° |
| 2026-04-20 03:23 | 20.47032 | -99.07929 | 28601 ft | 485 kts | 345° |
| 2026-04-20 03:23 | 20.50367 | -99.08204 | 28865 ft | 491 kts | 358° |
| 2026-04-20 03:23 | 20.53810 | -99.07858 | 29361 ft | 493 kts | 5° |
| 2026-04-20 03:24 | 20.57190 | -99.07242 | 29877 ft | 492 kts | 6° |
| 2026-04-20 03:24 | 20.60552 | -99.06619 | 30364 ft | 489 kts | 5° |
| 2026-04-20 03:24 | 20.63923 | -99.06136 | 30811 ft | 486 kts | 2° |
| 2026-04-20 03:24 | 20.67274 | -99.05835 | 31251 ft | 482 kts | 359° |
| 2026-04-20 03:25 | 20.70618 | -99.05676 | 31691 ft | 479 kts | 357° |
| 2026-04-20 03:25 | 20.73937 | -99.05592 | 32155 ft | 476 kts | 356° |
| 2026-04-20 03:25 | 20.77247 | -99.05523 | 32614 ft | 475 kts | 356° |
| 2026-04-20 03:25 | 20.80499 | -99.05432 | 33078 ft | 473 kts | 357° |
| 2026-04-20 03:26 | 20.83785 | -99.05303 | 33560 ft | 471 kts | 358° |
| 2026-04-20 03:26 | 20.87057 | -99.05141 | 34046 ft | 470 kts | 358° |
| 2026-04-20 03:26 | 20.90319 | -99.04961 | 34514 ft | 468 kts | 358° |
| 2026-04-20 03:26 | 20.93565 | -99.04777 | 34946 ft | 466 kts | 358° |
| 2026-04-20 03:27 | 20.96800 | -99.04597 | 35390 ft | 464 kts | 358° |
| 2026-04-20 03:27 | 21.00019 | -99.04426 | 35837 ft | 461 kts | 358° |
| 2026-04-20 03:27 | 21.03218 | -99.04262 | 36148 ft | 462 kts | 358° |
| 2026-04-20 03:28 | 21.09723 | -99.03937 | 36239 ft | 475 kts | 358° |
| 2026-04-20 03:28 | 21.19728 | -99.03435 | 36233 ft | 481 kts | 358° |
| 2026-04-20 03:29 | 21.26431 | -99.03085 | 36232 ft | 483 kts | 358° |
| 2026-04-20 03:29 | 21.33138 | -99.02734 | 36231 ft | 483 kts | 358° |
| 2026-04-20 03:30 | 21.39857 | -99.02389 | 36227 ft | 483 kts | 358° |
| 2026-04-20 03:30 | 21.46571 | -99.02048 | 36236 ft | 483 kts | 358° |
| 2026-04-20 03:31 | 21.53280 | -99.01705 | 36235 ft | 483 kts | 358° |
| 2026-04-20 03:31 | 21.59995 | -99.01365 | 36242 ft | 483 kts | 357° |
| 2026-04-20 03:32 | 21.66674 | -99.01024 | 36239 ft | 483 kts | 357° |
| 2026-04-20 03:32 | 21.73395 | -99.00669 | 36232 ft | 484 kts | 357° |
| 2026-04-20 03:33 | 21.80115 | -99.00319 | 36235 ft | 484 kts | 357° |
| 2026-04-20 03:33 | 21.86842 | -98.99973 | 36227 ft | 484 kts | 358° |
| 2026-04-20 03:34 | 21.93572 | -98.99624 | 36241 ft | 483 kts | 357° |
| 2026-04-20 03:34 | 22.00292 | -98.99277 | 36234 ft | 483 kts | 357° |
| 2026-04-20 03:35 | 22.07014 | -98.98935 | 36229 ft | 483 kts | 357° |
| 2026-04-20 03:35 | 22.13724 | -98.98589 | 36235 ft | 483 kts | 357° |
| 2026-04-20 03:36 | 22.20387 | -98.98237 | 36221 ft | 482 kts | 357° |
| 2026-04-20 03:36 | 22.27082 | -98.97891 | 36226 ft | 481 kts | 357° |
| 2026-04-20 03:37 | 22.33769 | -98.97551 | 36232 ft | 481 kts | 357° |
| 2026-04-20 03:37 | 22.40455 | -98.97200 | 36239 ft | 481 kts | 357° |
| 2026-04-20 03:38 | 22.47136 | -98.96844 | 36236 ft | 481 kts | 357° |
| 2026-04-20 03:38 | 22.53821 | -98.96499 | 36245 ft | 480 kts | 357° |
| 2026-04-20 03:39 | 22.60497 | -98.96154 | 36240 ft | 480 kts | 357° |
| 2026-04-20 03:39 | 22.67133 | -98.95809 | 36235 ft | 480 kts | 357° |
| 2026-04-20 03:40 | 22.73817 | -98.95464 | 36236 ft | 481 kts | 357° |
| 2026-04-20 03:40 | 22.80498 | -98.95113 | 36235 ft | 481 kts | 357° |
| 2026-04-20 03:41 | 22.87186 | -98.94758 | 36258 ft | 481 kts | 357° |
| 2026-04-20 03:41 | 22.93875 | -98.94407 | 36252 ft | 481 kts | 357° |
| 2026-04-20 03:42 | 23.00561 | -98.94057 | 36246 ft | 481 kts | 357° |
| 2026-04-20 03:42 | 23.07254 | -98.93707 | 36245 ft | 481 kts | 357° |
| 2026-04-20 03:43 | 23.13903 | -98.93359 | 36254 ft | 481 kts | 357° |
| 2026-04-20 03:43 | 23.20591 | -98.93000 | 36273 ft | 481 kts | 357° |
| 2026-04-20 03:44 | 23.27280 | -98.92649 | 36275 ft | 480 kts | 356° |
| 2026-04-20 03:44 | 23.33879 | -98.92826 | 36271 ft | 467 kts | 342° |
| 2026-04-20 03:45 | 23.40164 | -98.94465 | 36272 ft | 464 kts | 340° |
| 2026-04-20 03:45 | 23.46450 | -98.96120 | 36267 ft | 464 kts | 340° |
| 2026-04-20 03:46 | 23.52689 | -98.97750 | 36040 ft | 462 kts | 340° |
| 2026-04-20 03:46 | 23.55819 | -98.98569 | 35818 ft | 461 kts | 340° |
| 2026-04-20 03:46 | 23.58935 | -98.99389 | 35607 ft | 461 kts | 340° |
| 2026-04-20 03:47 | 23.62056 | -99.00213 | 35370 ft | 462 kts | 340° |
| 2026-04-20 03:47 | 23.65187 | -99.01041 | 35027 ft | 461 kts | 340° |
| 2026-04-20 03:47 | 23.68282 | -99.01856 | 34682 ft | 456 kts | 340° |
| 2026-04-20 03:47 | 23.71355 | -99.02663 | 34341 ft | 453 kts | 340° |
| 2026-04-20 03:48 | 23.74417 | -99.03470 | 33972 ft | 452 kts | 340° |
| 2026-04-20 03:48 | 23.77488 | -99.04281 | 33583 ft | 452 kts | 340° |
| 2026-04-20 03:48 | 23.80550 | -99.05089 | 33217 ft | 452 kts | 339° |
| 2026-04-20 03:48 | 23.83606 | -99.05897 | 32839 ft | 451 kts | 340° |
| 2026-04-20 03:49 | 23.86614 | -99.06691 | 32469 ft | 451 kts | 340° |
| 2026-04-20 03:49 | 23.89658 | -99.07495 | 32092 ft | 451 kts | 340° |
| 2026-04-20 03:49 | 23.92715 | -99.08302 | 31737 ft | 452 kts | 340° |
| 2026-04-20 03:49 | 23.95774 | -99.09112 | 31388 ft | 453 kts | 341° |
| 2026-04-20 03:50 | 23.98853 | -99.09930 | 31040 ft | 456 kts | 341° |
| 2026-04-20 03:50 | 24.01943 | -99.10754 | 30685 ft | 458 kts | 341° |
| 2026-04-20 03:50 | 24.05043 | -99.11581 | 30337 ft | 459 kts | 341° |
| 2026-04-20 03:50 | 24.08150 | -99.12407 | 29936 ft | 460 kts | 341° |
| 2026-04-20 03:51 | 24.11264 | -99.13235 | 29540 ft | 462 kts | 341° |
| 2026-04-20 03:51 | 24.14396 | -99.14067 | 29151 ft | 463 kts | 341° |
| 2026-04-20 03:51 | 24.17534 | -99.14897 | 28760 ft | 464 kts | 341° |
| 2026-04-20 03:51 | 24.20678 | -99.15729 | 28374 ft | 466 kts | 341° |
| 2026-04-20 03:52 | 24.23833 | -99.16565 | 27993 ft | 467 kts | 341° |
| 2026-04-20 03:52 | 24.26991 | -99.17406 | 27623 ft | 468 kts | 341° |
| 2026-04-20 03:52 | 24.30161 | -99.18252 | 27253 ft | 469 kts | 341° |
| 2026-04-20 03:52 | 24.33346 | -99.19101 | 26885 ft | 471 kts | 341° |
| 2026-04-20 03:53 | 24.36533 | -99.19951 | 26535 ft | 472 kts | 341° |
| 2026-04-20 03:53 | 24.39692 | -99.20792 | 26184 ft | 473 kts | 341° |
| 2026-04-20 03:53 | 24.42935 | -99.21651 | 25823 ft | 471 kts | 341° |
| 2026-04-20 03:53 | 24.46074 | -99.22478 | 25483 ft | 457 kts | 341° |
| 2026-04-20 03:54 | 24.49079 | -99.23268 | 25197 ft | 444 kts | 341° |
| 2026-04-20 03:54 | 24.52043 | -99.24050 | 24907 ft | 432 kts | 341° |
| 2026-04-20 03:54 | 24.54925 | -99.24820 | 24613 ft | 421 kts | 341° |
| 2026-04-20 03:54 | 24.57742 | -99.25578 | 24324 ft | 412 kts | 341° |
| 2026-04-20 03:55 | 24.60512 | -99.26326 | 24025 ft | 407 kts | 341° |
| 2026-04-20 03:55 | 24.63252 | -99.27068 | 23726 ft | 405 kts | 341° |
| 2026-04-20 03:55 | 24.65985 | -99.27808 | 23377 ft | 403 kts | 341° |
| 2026-04-20 03:55 | 24.68705 | -99.28542 | 23046 ft | 402 kts | 341° |
| 2026-04-20 03:56 | 24.71419 | -99.29271 | 22712 ft | 401 kts | 341° |
| 2026-04-20 03:56 | 24.74133 | -99.29996 | 22400 ft | 402 kts | 343° |
| 2026-04-20 03:56 | 24.76850 | -99.30722 | 22070 ft | 401 kts | 343° |
| 2026-04-20 03:56 | 24.79568 | -99.31449 | 21746 ft | 400 kts | 343° |
| 2026-04-20 03:57 | 24.82274 | -99.32173 | 21426 ft | 399 kts | 343° |
| 2026-04-20 03:57 | 24.84938 | -99.32886 | 21111 ft | 398 kts | 343° |
| 2026-04-20 03:57 | 24.87621 | -99.33605 | 20803 ft | 396 kts | 343° |
| 2026-04-20 03:57 | 24.90304 | -99.34323 | 20497 ft | 396 kts | 343° |
| 2026-04-20 03:58 | 24.93015 | -99.35055 | 20192 ft | 405 kts | 343° |
| 2026-04-20 03:58 | 24.95756 | -99.35796 | 19889 ft | 406 kts | 343° |
| 2026-04-20 03:58 | 24.98502 | -99.36536 | 19592 ft | 406 kts | 343° |
| 2026-04-20 03:58 | 25.01240 | -99.37274 | 19296 ft | 405 kts | 343° |
| 2026-04-20 03:59 | 25.03972 | -99.38011 | 19015 ft | 403 kts | 346° |
| 2026-04-20 03:59 | 25.06666 | -99.38739 | 18718 ft | 394 kts | 346° |
| 2026-04-20 03:59 | 25.09306 | -99.39450 | 18412 ft | 385 kts | 347° |
| 2026-04-20 03:59 | 25.11010 | -99.39908 | 18292 ft | 379 kts | 347° |
| 2026-04-20 04:00 | 25.14430 | -99.40829 | 18315 ft | 378 kts | 347° |
| 2026-04-20 04:00 | 25.16122 | -99.41285 | 18316 ft | 378 kts | 346° |
| 2026-04-20 04:00 | 25.18680 | -99.41976 | 18236 ft | 378 kts | 347° |
| 2026-04-20 04:00 | 25.21204 | -99.42767 | 18078 ft | 376 kts | 341° |
| 2026-04-20 04:01 | 25.23624 | -99.43810 | 17908 ft | 368 kts | 337° |
| 2026-04-20 04:01 | 25.25947 | -99.44976 | 17490 ft | 364 kts | 335° |
| 2026-04-20 04:01 | 25.28211 | -99.46200 | 17014 ft | 361 kts | 334° |
| 2026-04-20 04:01 | 25.30443 | -99.47432 | 16555 ft | 357 kts | 335° |
| 2026-04-20 04:02 | 25.32659 | -99.48647 | 16091 ft | 354 kts | 335° |
| 2026-04-20 04:02 | 25.34858 | -99.49830 | 15614 ft | 347 kts | 333° |
| 2026-04-20 04:02 | 25.36985 | -99.50952 | 15179 ft | 332 kts | 333° |
| 2026-04-20 04:02 | 25.39039 | -99.52020 | 14736 ft | 319 kts | 334° |
| 2026-04-20 04:03 | 25.41013 | -99.53036 | 14296 ft | 308 kts | 334° |
| 2026-04-20 04:03 | 25.42937 | -99.54028 | 13837 ft | 303 kts | 334° |
| 2026-04-20 04:03 | 25.44848 | -99.55015 | 13352 ft | 302 kts | 334° |
| 2026-04-20 04:03 | 25.46724 | -99.55992 | 12871 ft | 303 kts | 332° |
| 2026-04-20 04:04 | 25.48378 | -99.57386 | 12385 ft | 300 kts | 308° |
| 2026-04-20 04:04 | 25.49529 | -99.59303 | 11899 ft | 299 kts | 301° |
| 2026-04-20 04:04 | 25.50622 | -99.61270 | 11422 ft | 300 kts | 300° |
| 2026-04-20 04:04 | 25.51709 | -99.63248 | 10963 ft | 300 kts | 300° |
| 2026-04-20 04:05 | 25.52794 | -99.65222 | 10487 ft | 299 kts | 300° |
| 2026-04-20 04:05 | 25.53869 | -99.67172 | 10018 ft | 294 kts | 299° |
| 2026-04-20 04:05 | 25.54925 | -99.69087 | 9499 ft | 289 kts | 299° |
| 2026-04-20 04:05 | 25.55964 | -99.70969 | 8997 ft | 285 kts | 299° |
| 2026-04-20 04:06 | 25.56993 | -99.72828 | 8493 ft | 281 kts | 299° |
| 2026-04-20 04:06 | 25.58004 | -99.74650 | 8117 ft | 274 kts | 299° |
| 2026-04-20 04:06 | 25.58990 | -99.76433 | 7791 ft | 265 kts | 299° |
| 2026-04-20 04:06 | 25.59916 | -99.78107 | 7608 ft | 249 kts | 299° |
| 2026-04-20 04:07 | 25.60811 | -99.79728 | 7275 ft | 244 kts | 299° |
| 2026-04-20 04:07 | 25.61680 | -99.81302 | 6979 ft | 233 kts | 299° |
| 2026-04-20 04:07 | 25.62511 | -99.82808 | 6669 ft | 228 kts | 298° |
| 2026-04-20 04:07 | 25.63322 | -99.84322 | 6363 ft | 227 kts | 298° |
| 2026-04-20 04:08 | 25.64135 | -99.85812 | 6063 ft | 225 kts | 299° |
| 2026-04-20 04:08 | 25.64944 | -99.87277 | 5773 ft | 220 kts | 299° |
| 2026-04-20 04:08 | 25.65716 | -99.88673 | 5508 ft | 209 kts | 300° |
| 2026-04-20 04:08 | 25.66463 | -99.90025 | 5234 ft | 203 kts | 300° |
| 2026-04-20 04:09 | 25.67179 | -99.91322 | 4973 ft | 192 kts | 300° |
| 2026-04-20 04:09 | 25.67860 | -99.92555 | 4725 ft | 183 kts | 300° |
| 2026-04-20 04:09 | 25.68514 | -99.93740 | 4487 ft | 176 kts | 301° |
| 2026-04-20 04:09 | 25.68800 | -99.94258 | 4382 ft | 174 kts | 301° |
| 2026-04-20 04:10 | 25.69425 | -99.95376 | 4164 ft | 171 kts | 301° |
| 2026-04-20 04:10 | 25.70039 | -99.96499 | 3945 ft | 169 kts | 301° |
| 2026-04-20 04:10 | 25.70650 | -99.97612 | 3706 ft | 168 kts | 301° |
| 2026-04-20 04:11 | 25.71242 | -99.98715 | 3327 ft | 164 kts | 301° |
| 2026-04-20 04:11 | 25.71823 | -99.99775 | 3046 ft | 162 kts | 303° |
| 2026-04-20 04:11 | 25.72422 | -100.00840 | 2992 ft | 164 kts | 302° |
| 2026-04-20 04:11 | 25.73017 | -100.01911 | 2829 ft | 162 kts | 302° |
| 2026-04-20 04:12 | 25.73607 | -100.02979 | 2617 ft | 162 kts | 302° |
| 2026-04-20 04:12 | 25.74190 | -100.04036 | 2414 ft | 156 kts | 302° |
| 2026-04-20 04:12 | 25.74738 | -100.05031 | 2194 ft | 147 kts | 302° |
| 2026-04-20 04:12 | 25.75260 | -100.05979 | 1980 ft | 142 kts | 302° |
| 2026-04-20 04:13 | 25.75770 | -100.06906 | 1770 ft | 139 kts | 303° |
| 2026-04-20 04:13 | 25.76268 | -100.07813 | 1583 ft | 137 kts | 302° |
| 2026-04-20 04:13 | 25.76760 | -100.08714 | 1384 ft | 135 kts | 302° |
| 2026-04-20 04:13 | 25.77252 | -100.09598 | 1264 ft | 134 kts | 302° |
| 2026-04-20 04:14 | 25.77596 | -100.10227 | 1266 ft | 64 kts | 302° |
| 2026-04-20 04:14 | 25.77795 | -100.10581 | 1270 ft | 47 kts | 302° |
| 2026-04-20 04:14 | 25.77859 | -100.10810 | 1272 ft | 28 kts | 271° |
| 2026-04-20 04:14 | 25.77864 | -100.11004 | 1273 ft | 11 kts | 271° |
| 2026-04-20 04:15 | 25.77864 | -100.11015 | 1273 ft | 0 kts | 271° |
| 2026-04-20 04:15 | 25.77864 | -100.11021 | 1273 ft | 2 kts | 271° |
| 2026-04-20 04:15 | 25.77864 | -100.11041 | 1273 ft | 5 kts | 271° |
| 2026-04-20 04:16 | 25.77865 | -100.11091 | 1274 ft | 7 kts | 271° |
| 2026-04-20 04:16 | 25.77882 | -100.11148 | 1276 ft | 8 kts | 302° |
| 2026-04-20 04:16 | 25.77915 | -100.11207 | 1275 ft | 10 kts | 301° |
| 2026-04-20 04:16 | 25.77948 | -100.11275 | 1276 ft | 8 kts | 278° |
| 2026-04-20 04:17 | 25.77914 | -100.11310 | 1276 ft | 4 kts | 211° |
| 2026-04-20 04:17 | 25.77881 | -100.11332 | 1278 ft | 6 kts | 210° |
| 2026-04-20 04:17 | 25.77877 | -100.11334 | 1277 ft | 0 kts | 210° |